createdAt,value
2019-05-29T00:01:10.443Z,60.13
2019-05-29T00:03:38.673Z,59.89
2019-05-29T00:06:08.212Z,59.91
2019-05-29T00:08:37.623Z,59.83
2019-05-29T00:11:08.007Z,60.29
2019-05-29T00:13:37.470Z,60.42
2019-05-29T00:16:08.285Z,60.18
2019-05-29T00:18:37.812Z,60.32
2019-05-29T00:21:08.302Z,60.26
2019-05-29T00:23:38.081Z,60.11
2019-05-29T00:26:08.304Z,60.34
2019-05-29T00:28:37.786Z,60.32
2019-05-29T00:31:07.731Z,60.52
2019-05-29T00:33:37.319Z,60.51
2019-05-29T00:36:08.158Z,60.25
2019-05-29T00:38:37.652Z,60.37
2019-05-29T00:41:07.406Z,60.18
2019-05-29T00:43:37.080Z,60.43
2019-05-29T00:46:07.356Z,60.71
2019-05-29T00:48:37.374Z,60.45
2019-05-29T00:51:07.132Z,60.65
2019-05-29T00:53:37.202Z,60.91
2019-05-29T00:56:07.175Z,60.83
2019-05-29T00:58:37.124Z,60.80
2019-05-29T01:01:07.115Z,61.25
2019-05-29T01:03:37.298Z,60.90
2019-05-29T01:06:07.155Z,60.96
2019-05-29T01:08:37.017Z,61.27
2019-05-29T01:11:07.203Z,61.24
2019-05-29T01:13:37.062Z,61.10
2019-05-29T01:16:07.112Z,60.91
2019-05-29T01:18:37.516Z,60.97
2019-05-29T01:21:07.175Z,61.26
2019-05-29T01:23:37.180Z,61.37
2019-05-29T01:26:07.312Z,61.55
2019-05-29T01:28:37.089Z,61.39
2019-05-29T01:31:07.131Z,61.05
2019-05-29T01:33:37.181Z,61.42
2019-05-29T01:36:07.186Z,61.17
2019-05-29T01:38:37.211Z,61.22
2019-05-29T01:41:07.292Z,61.12
2019-05-29T01:43:37.321Z,61.37
2019-05-29T01:46:07.150Z,61.46
2019-05-29T01:48:37.281Z,61.57
2019-05-29T01:51:07.148Z,61.81
2019-05-29T01:53:37.173Z,61.99
2019-05-29T01:56:07.291Z,61.75
2019-05-29T01:58:37.249Z,61.76
2019-05-29T02:01:07.182Z,61.66
2019-05-29T02:03:37.391Z,61.65
2019-05-29T02:06:07.245Z,62.06
2019-05-29T02:08:37.317Z,62.34
2019-05-29T02:11:07.425Z,62.12
2019-05-29T02:13:37.317Z,62.12
2019-05-29T02:16:07.172Z,62.40
2019-05-29T02:18:37.259Z,62.25
2019-05-29T02:21:07.207Z,62.12
2019-05-29T02:23:37.607Z,62.25
2019-05-29T02:26:07.567Z,62.60
2019-05-29T02:28:37.328Z,62.76
2019-05-29T02:31:07.557Z,62.91
2019-05-29T02:33:37.380Z,62.65
2019-05-29T02:36:07.327Z,62.57
2019-05-29T02:38:37.277Z,62.54
2019-05-29T02:41:07.375Z,62.59
2019-05-29T02:43:37.334Z,63.29
2019-05-29T02:46:07.214Z,63.07
2019-05-29T02:48:37.560Z,63.01
2019-05-29T02:51:07.262Z,62.72
2019-05-29T02:53:37.387Z,62.94
2019-05-29T02:56:07.368Z,62.62
2019-05-29T02:58:37.332Z,62.55
2019-05-29T03:01:07.240Z,62.06
2019-05-29T03:03:39.933Z,62.10
2019-05-29T03:06:09.299Z,61.43
2019-05-29T03:08:39.907Z,61.72
2019-05-29T03:11:09.665Z,61.60
2019-05-29T03:13:40.209Z,61.98
2019-05-29T03:16:12.355Z,61.89
2019-05-29T03:18:40.937Z,62.01
2019-05-29T03:21:10.333Z,62.13
2019-05-29T03:23:39.772Z,62.57
2019-05-29T03:26:09.326Z,62.04
2019-05-29T03:28:38.738Z,62.05
2019-05-29T03:31:08.171Z,62.23
2019-05-29T03:33:45.297Z,62.42
2019-05-29T03:36:08.764Z,62.45
2019-05-29T03:38:38.576Z,62.50
2019-05-29T03:41:08.265Z,62.72
2019-05-29T03:43:38.786Z,62.79
2019-05-29T03:46:26.568Z,62.53
2019-05-29T03:48:39.780Z,62.33
2019-05-29T03:51:09.221Z,62.44
2019-05-29T03:53:38.651Z,62.62
2019-05-29T03:56:09.371Z,62.77
2019-05-29T03:58:38.760Z,62.59
2019-05-29T04:01:08.217Z,62.56
2019-05-29T04:03:38.402Z,62.56
2019-05-29T04:06:09.892Z,62.36
2019-05-29T04:08:41.663Z,62.39
2019-05-29T04:11:11.203Z,62.12
2019-05-29T04:13:40.571Z,62.20
2019-05-29T04:16:11.300Z,62.62
2019-05-29T04:18:41.833Z,62.46
2019-05-29T04:21:12.180Z,62.48
2019-05-29T04:23:43.440Z,62.39
2019-05-29T04:26:16.714Z,62.00
2019-05-29T04:28:47.976Z,62.20
2019-05-29T04:31:17.419Z,61.99
2019-05-29T04:33:46.879Z,61.96
2019-05-29T04:36:16.275Z,61.57
2019-05-29T04:38:45.688Z,61.57
2019-05-29T04:41:15.172Z,61.59
2019-05-29T04:43:44.590Z,60.81
2019-05-29T04:46:14.009Z,60.75
2019-05-29T04:48:43.622Z,60.39
2019-05-29T04:51:13.023Z,60.16
2019-05-29T04:53:42.455Z,59.79
2019-05-29T04:56:12.050Z,60.08
2019-05-29T04:58:42.054Z,59.76
2019-05-29T05:01:11.550Z,59.13
2019-05-29T05:03:41.101Z,59.56
2019-05-29T05:06:10.575Z,59.02
2019-05-29T05:08:40.287Z,59.52
2019-05-29T05:11:11.395Z,59.41
2019-05-29T05:13:40.905Z,58.77
2019-05-29T05:16:10.389Z,57.73
2019-05-29T05:18:40.336Z,57.42
2019-05-29T05:21:13.318Z,57.13
2019-05-29T05:23:42.814Z,56.93
2019-05-29T05:26:12.417Z,56.12
2019-05-29T05:28:44.784Z,55.89
2019-05-29T05:31:13.288Z,55.47
2019-05-29T05:33:43.085Z,54.58
2019-05-29T05:36:12.552Z,54.19
2019-05-29T05:38:42.855Z,54.19
2019-05-29T05:41:12.316Z,53.11
2019-05-29T05:43:41.782Z,53.12
2019-05-29T05:46:11.290Z,52.87
2019-05-29T05:48:41.495Z,52.54
2019-05-29T05:51:11.158Z,53.40
2019-05-29T05:53:42.683Z,53.35
2019-05-29T05:56:12.216Z,52.71
2019-05-29T05:58:42.310Z,50.80
2019-05-29T06:01:11.908Z,49.80
2019-05-29T06:03:42.477Z,49.55
2019-05-29T06:06:12.296Z,49.01
2019-05-29T06:08:42.489Z,48.23
2019-05-29T06:11:12.219Z,48.37
2019-05-29T06:13:42.802Z,48.05
2019-05-29T06:16:12.478Z,48.14
2019-05-29T06:18:43.007Z,47.66
2019-05-29T06:21:12.775Z,47.02
2019-05-29T06:23:43.488Z,47.02
2019-05-29T06:26:13.623Z,47.41
2019-05-29T06:28:43.630Z,45.68
2019-05-29T06:31:13.174Z,43.02
2019-05-29T06:33:43.867Z,41.23
2019-05-29T06:36:13.843Z,42.38
2019-05-29T06:38:46.164Z,40.72
2019-05-29T06:41:16.181Z,39.67
2019-05-29T06:43:45.631Z,39.55
2019-05-29T06:46:15.152Z,40.73
2019-05-29T06:48:58.520Z,37.43
2019-05-29T06:51:15.891Z,35.10
2019-05-29T06:53:45.385Z,34.88
2019-05-29T06:56:16.121Z,36.25
2019-05-29T06:58:46.104Z,36.62
2019-05-29T07:01:15.569Z,34.69
2019-05-29T07:03:48.207Z,34.54
2019-05-29T07:06:17.804Z,37.72
2019-05-29T07:08:49.962Z,39.18
2019-05-29T07:11:18.963Z,37.89
2019-05-29T07:13:50.535Z,38.54
2019-05-29T07:16:19.551Z,38.83
2019-05-29T07:19:24.069Z,40.16
2019-05-29T07:21:20.675Z,41.80
2019-05-29T07:23:50.208Z,40.17
2019-05-29T07:26:19.675Z,40.35
2019-05-29T07:29:07.668Z,39.75
2019-05-29T07:31:20.419Z,35.08
2019-05-29T07:33:50.297Z,33.81
2019-05-29T07:36:19.720Z,36.24
2019-05-29T07:39:01.910Z,36.82
2019-05-29T07:41:20.973Z,36.92
2019-05-29T07:43:50.433Z,37.92
2019-05-29T07:46:19.842Z,36.86
2019-05-29T07:48:50.390Z,36.73
2019-05-29T07:51:20.166Z,39.08
2019-05-29T07:53:49.683Z,39.98
2019-05-29T07:56:22.915Z,41.98
2019-05-29T07:59:01.670Z,42.03
2019-05-29T08:01:21.759Z,41.98
2019-05-29T08:03:51.195Z,42.68
2019-05-29T08:06:21.583Z,42.81
2019-05-29T08:08:51.205Z,42.41
2019-05-29T08:11:21.022Z,42.59
2019-05-29T08:13:50.418Z,42.41
2019-05-29T08:16:19.884Z,42.21
2019-05-29T08:18:52.674Z,42.57
2019-05-29T08:21:20.562Z,42.85
2019-05-29T08:23:50.757Z,43.25
2019-05-29T08:26:20.499Z,42.98
2019-05-29T08:28:51.153Z,43.49
2019-05-29T08:31:21.849Z,42.87
2019-05-29T08:33:51.515Z,42.65
2019-05-29T08:36:21.055Z,43.00
2019-05-29T08:38:51.821Z,43.69
2019-05-29T08:41:21.613Z,43.23
2019-05-29T08:43:51.086Z,43.72
2019-05-29T08:46:20.737Z,43.45
2019-05-29T08:48:50.301Z,43.66
2019-05-29T08:51:19.682Z,43.29
2019-05-29T08:53:51.897Z,41.66
2019-05-29T08:56:20.413Z,40.59
2019-05-29T08:58:50.646Z,37.64
2019-05-29T09:01:20.757Z,36.06
2019-05-29T09:03:51.271Z,34.92
2019-05-29T09:06:21.300Z,34.59
2019-05-29T09:08:52.836Z,34.58
2019-05-29T09:11:22.075Z,35.39
2019-05-29T09:13:51.530Z,36.19
2019-05-29T09:16:21.137Z,37.44
2019-05-29T09:18:50.726Z,38.40
2019-05-29T09:21:20.664Z,39.23
2019-05-29T09:23:50.077Z,40.45
2019-05-29T09:26:22.994Z,41.27
2019-05-29T09:28:50.800Z,40.58
2019-05-29T09:31:20.399Z,39.86
2019-05-29T09:33:51.285Z,40.04
2019-05-29T09:36:20.872Z,39.94
2019-05-29T09:38:50.485Z,39.47
2019-05-29T09:41:21.603Z,37.50
2019-05-29T09:43:58.929Z,35.82
2019-05-29T09:46:23.698Z,33.51
2019-05-29T09:48:53.487Z,33.78
2019-05-29T09:51:23.213Z,33.62
2019-05-29T09:53:54.317Z,31.99
2019-05-29T09:56:23.977Z,32.41
2019-05-29T09:58:55.274Z,31.79
2019-05-29T10:01:25.669Z,32.46
2019-05-29T10:03:57.570Z,33.02
2019-05-29T10:06:26.623Z,33.45
2019-05-29T10:08:56.726Z,34.55
2019-05-29T10:11:27.528Z,33.43
2019-05-29T10:13:58.624Z,33.99
2019-05-29T10:16:28.268Z,33.82
2019-05-29T10:18:59.774Z,34.34
2019-05-29T10:21:39.073Z,34.57
2019-05-29T10:24:01.992Z,34.53
2019-05-29T10:26:31.548Z,34.64
2019-05-29T10:29:08.285Z,35.08
2019-05-29T10:31:32.119Z,35.61
2019-05-29T10:34:01.650Z,35.35
2019-05-29T10:36:31.057Z,35.53
2019-05-29T10:39:00.556Z,35.23
2019-05-29T10:41:30.009Z,35.06
2019-05-29T10:43:59.419Z,33.77
2019-05-29T10:46:28.804Z,34.25
2019-05-29T10:48:58.459Z,34.05
2019-05-29T10:51:27.993Z,34.72
2019-05-29T10:53:59.133Z,35.35
2019-05-29T10:56:28.853Z,36.04
2019-05-29T10:59:00.055Z,37.27
2019-05-29T11:01:29.602Z,37.99
2019-05-29T11:04:00.177Z,38.16
2019-05-29T11:06:29.618Z,38.16
2019-05-29T11:08:59.050Z,38.08
2019-05-29T11:11:28.545Z,38.15
2019-05-29T11:13:57.965Z,37.42
2019-05-29T11:16:27.393Z,37.88
2019-05-29T11:18:57.585Z,38.64
2019-05-29T11:21:27.199Z,39.25
2019-05-29T11:23:58.057Z,39.43
2019-05-29T11:26:27.934Z,39.03
2019-05-29T11:28:58.630Z,38.63
2019-05-29T11:31:28.354Z,38.36
2019-05-29T11:33:59.107Z,36.78
2019-05-29T11:36:28.736Z,37.33
2019-05-29T11:39:03.229Z,36.51
2019-05-29T11:41:29.585Z,35.36
2019-05-29T11:43:59.047Z,35.89
2019-05-29T11:46:28.428Z,36.25
2019-05-29T11:48:59.245Z,35.75
2019-05-29T11:51:28.788Z,34.65
2019-05-29T11:53:59.469Z,33.98
2019-05-29T11:56:29.174Z,33.99
2019-05-29T11:58:59.136Z,33.99
2019-05-29T12:01:28.558Z,34.74
2019-05-29T12:04:21.606Z,35.20
2019-05-29T12:06:29.326Z,35.52
2019-05-29T12:08:59.851Z,34.77
2019-05-29T12:11:29.492Z,34.58
2019-05-29T12:14:00.548Z,35.19
2019-05-29T12:16:30.072Z,36.52
2019-05-29T12:19:01.900Z,35.12
2019-05-29T12:21:31.507Z,35.79
2019-05-29T12:24:02.325Z,35.71
2019-05-29T12:26:31.906Z,36.17
2019-05-29T12:29:10.755Z,36.44
2019-05-29T12:31:32.585Z,35.65
2019-05-29T12:34:12.991Z,35.82
2019-05-29T12:36:33.660Z,36.46
2019-05-29T12:39:04.209Z,35.46
2019-05-29T12:41:33.872Z,35.76
2019-05-29T12:44:03.659Z,35.26
2019-05-29T12:46:33.249Z,35.24
2019-05-29T12:49:03.820Z,34.43
2019-05-29T12:51:33.421Z,34.52
2019-05-29T12:54:04.992Z,34.76
2019-05-29T12:56:34.221Z,35.10
2019-05-29T12:59:04.687Z,35.00
2019-05-29T13:01:34.256Z,35.17
2019-05-29T13:04:04.762Z,34.77
2019-05-29T13:06:34.311Z,34.72
2019-05-29T13:09:05.797Z,33.91
2019-05-29T13:11:35.703Z,33.06
2019-05-29T13:14:05.218Z,33.39
2019-05-29T13:16:34.633Z,33.30
2019-05-29T13:19:05.378Z,33.81
2019-05-29T13:21:34.906Z,34.05
2019-05-29T13:24:11.210Z,34.08
2019-05-29T13:26:38.376Z,33.08
2019-05-29T13:29:08.357Z,32.62
2019-05-29T13:31:38.419Z,32.42
2019-05-29T13:34:08.513Z,32.23
2019-05-29T13:36:39.324Z,32.54
2019-05-29T13:39:09.568Z,32.96
2019-05-29T13:41:41.090Z,32.75
2019-05-29T13:44:10.523Z,32.70
2019-05-29T13:46:39.965Z,32.45
2019-05-29T13:49:09.419Z,33.11
2019-05-29T13:51:38.840Z,32.97
2019-05-29T13:54:15.350Z,32.82
2019-05-29T13:56:40.024Z,32.48
2019-05-29T13:59:09.452Z,32.87
2019-05-29T14:01:38.887Z,32.64
2019-05-29T14:04:08.764Z,32.57
2019-05-29T14:06:38.803Z,31.89
2019-05-29T14:09:10.091Z,32.20
2019-05-29T14:11:39.947Z,31.84
2019-05-29T14:14:12.912Z,31.78
2019-05-29T14:16:40.636Z,31.88
2019-05-29T14:19:10.182Z,31.96
2019-05-29T14:21:39.590Z,32.90
2019-05-29T14:24:26.288Z,33.47
2019-05-29T14:26:40.404Z,33.76
2019-05-29T14:29:10.130Z,33.90
2019-05-29T14:31:39.565Z,33.34
2019-05-29T14:34:09.514Z,33.95
2019-05-29T14:36:39.266Z,33.60
2019-05-29T14:39:09.998Z,33.14
2019-05-29T14:41:39.584Z,33.08
2019-05-29T14:44:10.018Z,32.77
2019-05-29T14:46:39.599Z,33.07
2019-05-29T14:49:10.463Z,33.11
2019-05-29T14:51:40.302Z,32.51
2019-05-29T14:54:11.048Z,32.00
2019-05-29T14:56:40.992Z,32.20
2019-05-29T14:59:11.100Z,32.62
2019-05-29T15:01:40.763Z,32.99
2019-05-29T15:04:12.682Z,32.13
2019-05-29T15:06:41.802Z,30.82
2019-05-29T15:09:11.807Z,31.94
2019-05-29T15:11:41.367Z,31.93
2019-05-29T15:14:10.766Z,31.12
2019-05-29T15:16:40.195Z,31.94
2019-05-29T15:19:10.996Z,32.26
2019-05-29T15:21:40.861Z,32.32
2019-05-29T15:24:11.527Z,32.10
2019-05-29T15:26:41.150Z,32.26
2019-05-29T15:29:14.297Z,32.04
2019-05-29T15:31:41.682Z,32.44
2019-05-29T15:34:12.279Z,32.53
2019-05-29T15:36:43.924Z,32.63
2019-05-29T15:39:14.499Z,33.37
2019-05-29T15:41:44.274Z,33.34
2019-05-29T15:44:15.056Z,33.33
2019-05-29T15:46:44.520Z,32.62
2019-05-29T15:49:15.219Z,32.86
2019-05-29T15:51:44.833Z,32.54
2019-05-29T15:54:15.302Z,32.78
2019-05-29T15:56:46.244Z,33.16
2019-05-29T15:59:17.086Z,32.22
2019-05-29T16:01:46.789Z,32.23
2019-05-29T16:04:16.400Z,31.81
2019-05-29T16:06:47.203Z,32.11
2019-05-29T16:09:16.592Z,32.02
2019-05-29T16:11:46.187Z,33.02
2019-05-29T16:14:16.789Z,33.32
2019-05-29T16:16:46.286Z,33.07
2019-05-29T16:19:16.247Z,32.93
2019-05-29T16:21:45.879Z,32.74
2019-05-29T16:24:15.295Z,32.37
2019-05-29T16:26:44.774Z,32.31
2019-05-29T16:29:15.981Z,32.07
2019-05-29T16:31:45.372Z,32.22
2019-05-29T16:34:18.439Z,32.41
2019-05-29T16:36:46.174Z,32.63
2019-05-29T16:39:15.809Z,32.80
2019-05-29T16:41:45.440Z,32.92
2019-05-29T16:44:16.162Z,32.91
2019-05-29T16:46:45.850Z,32.46
2019-05-29T16:49:16.620Z,32.32
2019-05-29T16:51:46.134Z,33.26
2019-05-29T16:54:17.057Z,32.67
2019-05-29T16:56:46.864Z,33.16
2019-05-29T16:59:17.029Z,33.67
2019-05-29T17:01:46.592Z,32.69
2019-05-29T17:04:16.159Z,32.72
2019-05-29T17:06:45.568Z,33.04
2019-05-29T17:09:16.314Z,33.05
2019-05-29T17:11:46.029Z,32.75
2019-05-29T17:14:16.441Z,32.89
2019-05-29T17:16:46.539Z,33.01
2019-05-29T17:19:16.591Z,33.29
2019-05-29T17:21:46.131Z,32.92
2019-05-29T17:24:16.659Z,33.71
2019-05-29T17:26:46.378Z,33.20
2019-05-29T17:29:16.899Z,33.77
2019-05-29T17:31:46.386Z,33.48
2019-05-29T17:34:16.902Z,33.17
2019-05-29T17:36:46.415Z,33.07
2019-05-29T17:39:17.027Z,32.91
2019-05-29T17:41:46.873Z,33.14
2019-05-29T17:44:17.422Z,33.96
2019-05-29T17:46:46.888Z,33.30
2019-05-29T17:49:17.742Z,32.91
2019-05-29T17:51:47.357Z,32.45
2019-05-29T17:54:17.891Z,32.87
2019-05-29T17:56:47.498Z,32.68
2019-05-29T17:59:17.965Z,32.74
2019-05-29T18:01:47.369Z,32.85
2019-05-29T18:04:17.846Z,32.38
2019-05-29T18:06:47.385Z,32.91
2019-05-29T18:09:17.211Z,32.23
2019-05-29T18:11:47.608Z,33.02
2019-05-29T18:14:17.483Z,33.24
2019-05-29T18:16:46.921Z,33.42
2019-05-29T18:19:17.541Z,33.10
2019-05-29T18:21:47.364Z,33.54
2019-05-29T18:24:17.666Z,32.80
2019-05-29T18:26:47.659Z,33.48
2019-05-29T18:29:18.046Z,33.40
2019-05-29T18:31:47.728Z,33.30
2019-05-29T18:34:17.193Z,33.49
2019-05-29T18:36:46.624Z,33.59
2019-05-29T18:39:16.053Z,33.86
2019-05-29T18:41:45.533Z,33.51
2019-05-29T18:44:14.954Z,33.99
2019-05-29T18:46:44.396Z,34.19
2019-05-29T18:49:14.878Z,35.47
2019-05-29T18:51:44.494Z,35.00
2019-05-29T18:54:14.173Z,35.92
2019-05-29T18:56:43.637Z,37.25
2019-05-29T18:59:13.672Z,36.31
2019-05-29T19:01:43.732Z,35.17
2019-05-29T19:04:13.796Z,34.55
2019-05-29T19:06:43.719Z,34.24
2019-05-29T19:09:13.604Z,34.09
2019-05-29T19:11:43.233Z,33.79
2019-05-29T19:14:13.685Z,35.04
2019-05-29T19:16:43.719Z,36.17
2019-05-29T19:19:13.888Z,35.86
2019-05-29T19:21:43.726Z,34.77
2019-05-29T19:24:14.115Z,35.28
2019-05-29T19:26:44.026Z,35.28
2019-05-29T19:29:13.694Z,34.76
2019-05-29T19:31:43.665Z,34.98
2019-05-29T19:34:13.791Z,35.76
2019-05-29T19:36:43.629Z,34.66
2019-05-29T19:39:13.649Z,34.46
2019-05-29T19:41:43.762Z,34.72
2019-05-29T19:44:13.655Z,33.84
2019-05-29T19:46:53.555Z,33.89
2019-05-29T19:49:14.879Z,33.81
2019-05-29T19:51:44.337Z,33.83
2019-05-29T19:54:13.699Z,33.50
2019-05-29T19:56:43.814Z,33.67
2019-05-29T19:59:13.700Z,33.67
2019-05-29T20:01:43.760Z,33.77
2019-05-29T20:04:13.836Z,34.01
2019-05-29T20:06:43.850Z,34.25
2019-05-29T20:09:13.721Z,34.41
2019-05-29T20:11:43.871Z,34.23
2019-05-29T20:14:13.817Z,34.47
2019-05-29T20:16:43.700Z,35.02
2019-05-29T20:19:14.078Z,34.84
2019-05-29T20:21:43.813Z,34.93
2019-05-29T20:24:13.914Z,35.09
2019-05-29T20:26:43.980Z,35.20
2019-05-29T20:29:15.187Z,35.28
2019-05-29T20:31:44.834Z,35.56
2019-05-29T20:34:14.322Z,35.83
2019-05-29T20:36:43.722Z,35.91
2019-05-29T20:39:13.880Z,36.10
2019-05-29T20:41:44.158Z,36.29
2019-05-29T20:44:13.795Z,36.22
2019-05-29T20:46:43.777Z,36.39
2019-05-29T20:49:13.948Z,36.56
2019-05-29T20:51:43.795Z,36.68
2019-05-29T20:54:13.942Z,36.62
2019-05-29T20:56:47.125Z,36.78
2019-05-29T20:59:16.493Z,37.07
2019-05-29T21:01:47.567Z,37.28
2019-05-29T21:04:19.182Z,37.49
2019-05-29T21:06:49.849Z,37.58
2019-05-29T21:09:19.285Z,37.86
2019-05-29T21:11:48.900Z,37.92
2019-05-29T21:14:18.327Z,38.05
2019-05-29T21:16:47.751Z,38.30
2019-05-29T21:19:17.312Z,38.77
2019-05-29T21:21:47.501Z,39.02
2019-05-29T21:24:16.929Z,39.01
2019-05-29T21:26:47.024Z,39.20
2019-05-29T21:29:16.460Z,39.33
2019-05-29T21:31:45.895Z,39.79
2019-05-29T21:34:15.776Z,39.85
2019-05-29T21:36:46.394Z,39.90
2019-05-29T21:39:15.966Z,39.88
2019-05-29T21:41:46.621Z,40.09
2019-05-29T21:44:16.207Z,40.33
2019-05-29T21:46:45.622Z,40.49
2019-05-29T21:49:15.229Z,40.55
2019-05-29T21:51:45.773Z,40.70
2019-05-29T21:54:15.413Z,40.56
2019-05-29T21:56:45.856Z,40.63
2019-05-29T21:59:15.424Z,40.77
2019-05-29T22:01:46.190Z,41.01
2019-05-29T22:04:15.973Z,41.10
2019-05-29T22:06:46.560Z,41.30
2019-05-29T22:09:16.394Z,41.39
2019-05-29T22:11:45.960Z,41.56
2019-05-29T22:14:15.587Z,41.73
2019-05-29T22:16:45.135Z,41.93
2019-05-29T22:19:14.649Z,42.09
2019-05-29T22:21:44.083Z,42.16
2019-05-29T22:24:14.062Z,42.41
2019-05-29T22:26:44.174Z,42.81
2019-05-29T22:29:18.381Z,43.51
2019-05-29T22:31:45.192Z,43.20
2019-05-29T22:34:14.973Z,43.24
2019-05-29T22:36:44.380Z,43.45
2019-05-29T22:39:14.407Z,43.59
2019-05-29T22:41:44.093Z,44.04
2019-05-29T22:44:13.998Z,44.22
2019-05-29T22:46:44.063Z,44.47
2019-05-29T22:49:14.165Z,44.79
2019-05-29T22:51:44.237Z,45.13
2019-05-29T22:54:14.024Z,45.44
2019-05-29T22:56:44.131Z,45.34
2019-05-29T22:59:14.020Z,45.69
2019-05-29T23:01:44.119Z,45.88
2019-05-29T23:04:14.195Z,46.07
2019-05-29T23:06:44.147Z,46.47
2019-05-29T23:09:14.043Z,46.48
2019-05-29T23:11:44.493Z,47.06
2019-05-29T23:14:14.077Z,47.46
2019-05-29T23:16:44.096Z,47.35
2019-05-29T23:19:14.188Z,47.66
2019-05-29T23:21:44.182Z,48.12
2019-05-29T23:24:14.167Z,48.34
2019-05-29T23:26:44.268Z,48.47
2019-05-29T23:29:14.212Z,49.16
2019-05-29T23:31:44.156Z,48.97
2019-05-29T23:34:14.342Z,49.54
2019-05-29T23:36:44.244Z,49.63
2019-05-29T23:39:14.192Z,49.72
2019-05-29T23:41:45.232Z,50.65
2019-05-29T23:44:15.353Z,50.30
2019-05-29T23:46:44.741Z,50.31
2019-05-29T23:49:14.230Z,50.59
2019-05-29T23:51:44.112Z,50.80
2019-05-29T23:54:14.227Z,50.88
2019-05-29T23:56:44.397Z,51.17
2019-05-29T23:59:14.125Z,50.93
